AVIATION WEATHER REPORT

         

                                                                                                                                 GENERAL AVIATION FORECAST ST. MAARTEN

 

DATE ISSUED:  March 22, 2017 VALID            TIME: 12:00 -24:00Z

 
AREA OF COVERAGE: TNCM TMA (Bounded by 18.25N 063.39W, 18.25N 062.51W, 17.47N 062.22W, 17.26N 062.53W, 17.36N 063.39W AND 18.25N 063.39W

LEVELS OF COVERAGE: MSL TO FL100

 

SIG. WX: -SHRA

SIG. CLDS: SCT TCU BASE 1800 – 2200 FT AND TOPS ABV FL100

SFC. VIS: 10 + KM

 
 
FCST WNDS/TEMP ALOFT 22/18:00z
 

LEVEL

WINDS

TEMP

0500 FT

080/10KT

+24

1000 FT

080/10KT

+22

2000 FT

080/10KT

+20

3000 FT

090/10KT

+17

FL050

080/05KT

+16

FL080

270/05KT

+11

FL100

260/05KT

+07

 

FZL: ABOVE FL100

 

SPECIAL FEATURES: NONE

TAF:

 

TNCM 220541Z 2206/2306 10006KT P6SM VCSH SCT016 SCT040 TEMPO 2206/2208 -SHRA BKN016
FM221300 13012KT P6SM SCT018
FM222200 11008KT P6SM VCSH SCT020 SCT040

 

FORECASTER: GORDON.

dwx

 

TNCM 221136Z 2212/2312 10008KT P6SM VCSH SCT018 BKN035 FM221300 13012KT P6SM SCT018
FM222200 11008KT P6SM VCSH SCT020 SCT040

TAF TAPA 221100Z 2212/2312 11010KT 9999 SCT018 PROB30 TEMPO 2212/2223 SHRA

TAF TFFR 221100Z 2212/2312 11010KT 9999 SCT026 TEMPO 2223/2312 3000 SHRA SCT018TCU

TJSJ 221136Z 2212/2312 12005KT P6SM SCT028 SCT060 SCT080 FM221400 08009KT P6SM FEW025 SCT050
FM221700 10010KT P6SM VCSH SCT025 BKN050
FM222300 11005KT P6SM VCSH SCT030 BKN050

TAF TXKF 221131Z 2212/2312 25012KT 9999 SCT035
BECMG 2218/2221 22022KT
PROB40 TEMPO 2303/2306 23025G35KT 4800 SHRA SCT009 BKN013 BECMG 2304/2306 26015KT 9999 VCSH SCT010 BKN015
BECMG 2306/2309 35025KT

TAF LPAZ 221100Z 2212/2318 36008KT 9999 FEW025 BKN045 TEMPO 2212/2218 VRB05KT SCT020
BECMG 2218/2221 03010KT

TAF LPLA 221107Z 2212/2312 VRB05KT 9999 FEW025 SCT035 TEMPO 2212/2312 SCT020 BKN035

17.36N 63.40W and 18.30N 63.40W).
Levels of Coverage: MSL to FL100.
SIG WX: ISOL SHRA.
SIG CLDS: FEW TCU 1000 - 1500FT AND TOPS ABV FL100.
SCT/ BKN LYR SC/AC 2000 - 3500FT AND TOPS ABV FL100.
SFC VIS: 10+ KM, 3 - 7 KM IN SHRA.
FCST WNDS/TEMP ALOFT: 14/ 18:00Z
0500 FT.. 200/10KT +26 FL050.....220/10KT +16
1000 FT.. 200/10KT +24 FL080.....220/05KT +11
2000 FT.. 210/15KT +22 FL100.....200/10KT +08
3000 FT.. 210/15KT +19
FZL: ABV FL100.
SPECIAL FEATURES:
NONE.
TAFS:
TAF TNCM 141200Z 1412/1512 14012KT P6SM VCSH BKN018 BKN035
FM141800 21008KT P6SM VCSH SCT022 SCT050=
Forecaster: DJF.

Save

Save

Save

Save

Save

Save

Save

Save

Save

Save

Save

Save

Save

Save

Save

Save

Save

Save

Save

Save

Save

Save

Save

Save

Save

Save

Save

Save

Save

Save

Save

Save

Save

Save

Save

Save

Save

Save

Save

Save

Save

Save

Save

Save

Save

Save

Save

Save

Save

Save

Save

Save

Save

Save

Save

Save

Save

Save

Save

Save

Save

Save

Save

Save

Save

Save

Save

Save

Save

Save

Save

Save

Save

Save

Save

Save

Save

Save

Save

Save

Save

Save

Save

Save

Save

Save

Save

Save

Save

Save

Save

Save

Save

Save

Save

Save

Save

Save

Save

Save

Save

Save

Save

Save

Save

Save

Save

Save

Save

Save

Save

Save

Save

Save

Save

Save

Save

Save

Save

Save

Save

Save

Save

Save

Save

Save

Save

Save

Save

Save

Save

Save

Save

Save

Save

Download attachments:
Rate this item
(0 votes)

Add comment

Security code
Refresh

International News

Go to top